Jasper, NY (14855)

3:09 AM EST on December 22, 2014 (GMT -0500)
Academy Corners, Deerfield Township, PA | Change Station
CLOSE
Current Station
Personal Weather Station
Location: Knoxville, PA
Elevation: 1224 ft
Nearby Weather Stations

Elev 1224 ft 41.95 °N, 77.43 °W | Updated 30 seconds ago

Mostly Cloudy
Mostly Cloudy
21.5 °F
Feels Like 22 °F
N
0.0
Wind Variable Wind from ESE
Gusts 2.0 mph

Today
High -- | Low -- °F
--% Chance of Precip.
Yesterday
High -- | Low -- °F
Precip. -- in
7:35 AM 4:41 PM
New Moon, 0% visible
Pressure 30.28 in
Visibility 10.0 miles
Clouds Clear
Windchill 22 °F
Dew Point 18 °F
Humidity 87%
Rainfall 0.00 in
Snow Depth Not available.
UV 0.0 out of 12
Pollen .10 out of 12
Air Quality Not available.
Flu Activity Not available.
METAR KELZ 220756Z AUTO 11005KT 10SM CLR M06/M08 A3018 RMK AO2 SLP252 T10561078

More Conditions Fewer Conditions

Pressure 30.28 in
Visibility 10.0 miles
Clouds Clear
Windchill 22 °F
Dew Point 18 °F
Humidity 87%
Rainfall 0.00 in
Snow Depth Not available.
UV 0.0 out of 12
Pollen .10 out of 12
Air Quality Not available.
Flu Activity Not available.
METAR KELZ 220756Z AUTO 11005KT 10SM CLR M06/M08 A3018 RMK AO2 SLP252 T10561078

More Conditions Fewer Conditions

10-Day Weather Forecast

Almanac

Astronomy

Dec. 22, 2014 Rise Set
Actual Time
Civil Twilight
Nautical Twilight
Astronomical Twilight
Moon
Length of Visible Light
Length of Day
Tomorrow will be .
, % of the Moon is Illuminated

Today's Extremes

State Highs State Lows

Community

WunderPhotos

Upload Photos

1,779,564 photos uploaded!

WunderBlogs® & News

Nearby

Air Quality

  Air Quality AQ Index Pollutant
Not available.

Snow Depth

Station Depth Elevation

Earthquake Activity

City Distance Mag. Time & Date
Minimum magnitude displayed is 2.5.

Coastal Water Temperatures

Place Temperature

Nearby Weather Stations